KNTD/NTD METAR and TAF weather

Enter ICAO airport designator
Station Type Date Time Source
KNTD METAR 2020/04/03 07:52 UTC NOAA

KNTD 030752Z AUTO 00000KT 7SM CLR 11/08 A2997 RMK AO2 SLP151 T01060083 401830089 $


Station Type Date Time Source
KNTD Decoded METAR 2020/04/03 07:52 UTC NOAA

NAWCWPNS POINT MUGU, CA, CA, United States (KNTD) 34-07N 119-07W 2M
Apr 03, 2020 - 03:52 AM EDT / 2020.04.03 0752 UTC
Wind: Calm:0
Visibility: 7 mile(s):0
Sky conditions: clear
Temperature: 51.1 F (10.6 C)
Dew Point: 46.9 F (8.3 C)
Relative Humidity: 85%
Pressure (altimeter): 29.97 in. Hg (1014 hPa)
ob: KNTD 030752Z AUTO 00000KT 7SM CLR 11/08 A2997 RMK AO2 SLP151 T01060083 401830089
cycle: 8

Station Type Date Time Source
KNTD TAF 2020/04/03 07:06 UTC NOAA

TAF KNTD 0307/0407 VRB05KT 9999 SKC QNH2992INS
BECMG 0317/0318 23009KT 9999 FEW015 SCT250 QNH2987INS
FM032200 27011KT 9999 SCT015 SCT250 QNH2982INS
FM040300 VRB06KT 9999 FEW015 QNH2980INS AUTOMATED SENSOR METWATCH 0307 TIL 0313 T10/0314Z T18/0321Z FS30134

Example: see airport list